Centennial Airport
KAPA : now visible

Airfield :











YOU CAN JOIN US ON...

 
LOGIN :

Register | Disclaimer

   EN    FR    IT 

 









Legend :    VFR   Marginal VFR   IFR   Intensive IFR   Very Intensive IFR
Visi :
Ceiling :
>= 8 km
>= 3000ft
5 to 8 km
1000 to 3000 ft
1500m to 5 km
500 to 1000 ft
800 to 1500m
200 to 500 ft
< 800m
< 200 ft
Symbols :   Thunderstorms  Fog  Heavy snow  Heavy precipitations  Wind > 20 kt






- Airport Elevation : 5885 ft


KAPA - Centennial

CURRENT METAR :
  • 280253Z 18009KT 10SM FEW085 SCT100 SCT130 SCT220 15/11 A3015 RMK AO2 LTG DSNT E RAE11B28E48 TSE28 SLP155 P0000 60004 T01500111 50022

EXPIRED METARs :
  • 280153Z 33010KT 10SM -TSRA SCT055 SCT075CB BKN130 BKN220 19/10 A3016 RMK AO2 PK WND 30030/0120 WSHFT 0114 RAB19 TSB0058 SLP153 OCNL LTGIC VC N-E-S TS VC N-E-S MOV SE P0004 T01890100
  • 280134Z 28009G20KT 8SM -TSRA SCT055 BKN075CB BKN130 BKN220 18/11 A3014 RMK AO2 PK WND 30030/0120 WSHFT 0114 RAB19 TSB0058 PRESRR OCNL LTGIC OHD TS OHD MOV SE P0004 T01780106
  • 280104Z 02005KT 10SM TS BKN100CB BKN130 BKN220 24/05 A3010 RMK AO2 TSB0058 OCNL LTGIC VC W TS VC W MOV SE SHRA VC W T02390050
  • 280053Z 01006KT 10SM BKN110 BKN130 BKN220 24/04 A3010 RMK AO2 LTG DSNT W SLP129 OCNL LTGICCG DSNT W CB DSNT W-NW MOV SE VIRGA DSNT SW-N T02390044

TAF KAPA
Valid from the 28 at 00:00 until the 29 at 00:00 UTC


272331Z 2800/2824 34010KT P6SM VCSH SCT080 BKN110
TEMPO 2800/2804 VRB20G30KT -TSRA BKN070CB
FM280600 21007KT P6SM SCT110
FM281200 28006KT P6SM SCT220
FM281500 36009KT P6SM FEW010
FM281900 07009KT P6SM FEW070 SCT100
TEMPO 2823/2824 VRB20G30KT -TSRA BKN070CB
KZDV FIR / North America



MET'MAP, your aeronautical weather chart ! - Copyright ORBIFLY December 2007 - Disclaimer

ORBIFLY MET'MAP TEAM :

Programming & Development : Alexandra Zaïnal
Concept & original design : Baudouin d'Aumeries
Assistance for programming : Marc-Olivier Méhu
Technical & hardware support : Manuel Goepfert

Contact : metmap@orbifly.com




SOURCES & CREDITS :

   NOAA       Earth
Advisory